الصفحة الرئيسية
METAR-TAF:

METAR-TAF

مطار :

Lavan Island, إيران

دائرة عرض: 26-48-37N, خط طول: 53-21-22E, ارتفاع: 23 متر

مراقبة الطقس الحالي

تاريخ ووقت الإصدار 1ساعة و 12 دقيقة قبل الساعة 09:00UTC
ريح 14 عقدة من الغرب/الشمال الغربي
درجة الحرارة 37°درجة مئوية
الرطوبة 54%
ضغط 997 hPa
الرؤية: 6000 متر

METAR: OIBV 140900Z 29014KT 6000 NSC 37/26 Q0997

زمن: 14:42 (10:12 UTC)


TAF: مفقودة

أرصاد الطقس والتوقعات من أكثر من 4000 مطار (تقارير الطقس للمطار METAR والتنبؤ بالطقس بالمطارTAF).

المحطات المتاحة هي النقط الصفراء والحمراء على الخريطة.

حرك المؤشر فوق النقطة لمعرفة اسم المحطة.

ثم انقر لمعرفة أرصاد وتوقعات الطقس.

لتغيير الخارطة: اضغط على الأزرار الخضراء مع رمز الصليب الأسود للتكبير. على الزر الأخضر مع شرطة للتصغير، أو على الأسهم الخضراء للخرائط المجاورة.


METAR-TAF: